Flight Track Log - Related Links

Times and Time Zones

All times are in EDT time to prevent confusion due to time zone crossing. See the DAL1094 flight status page for this flight to view local times or setup timezone preferences in your user account.

Time Position Orientation Groundspeed Altitude Reporting Facility
EDT Latitude Longitude Course Direction KTS MPH feet Rate Location/Type
Tue 08:37:33 AM 33.7000 -84.5667 307° West 275 316 6,900  Level Atlanta TRACON
Tue 08:37:53 AM 33.7136 -84.5883 North 440 506 7,700 2,325 Climbing Atlanta Center
Tue 08:38:53 AM 33.7972 -84.5764 30° Northeast 297 342 10,000 2,250 Climbing Atlanta Center
Tue 08:39:53 AM 33.8767 -84.5217 21° North 326 375 12,200 2,150 Climbing Atlanta Center
Tue 08:40:53 AM 34.0064 -84.4622 37° Northeast 338 389 14,300 2,800 Climbing Atlanta Center
Tue 08:41:53 AM 34.0672 -84.4075 24° Northeast 383 441 17,800 3,000 Climbing Atlanta Center
Tue 08:42:53 AM 34.1758 -84.3503 27° Northeast 389 448 20,300 2,250 Climbing Atlanta Center
Tue 08:43:53 AM 34.2783 -84.2878 11° North 396 456 22,300 2,100 Climbing Atlanta Center
Tue 08:44:53 AM 34.4097 -84.2578 11° North 419 482 24,500 1,950 Climbing Atlanta Center
Tue 08:45:53 AM 34.5308 -84.2303 12° North 429 494 26,200 1,850 Climbing Atlanta Center
Tue 08:46:53 AM 34.6542 -84.1978 11° North 439 505 28,200 2,000 Climbing Atlanta Center
Tue 08:47:53 AM 34.7750 -84.1703 11° North 445 512 30,200 1,750 Climbing Atlanta Center
Tue 08:48:53 AM 34.8961 -84.1425 12° North 445 512 31,700 1,400 Climbing Atlanta Center
Tue 08:49:53 AM 35.0150 -84.1122 11° North 445 512 33,000 850 Climbing Atlanta Center
Tue 08:50:53 AM 35.1319 -84.0844 12° North 445 512 33,400 500 Climbing Atlanta Center
Tue 08:51:53 AM 35.2508 -84.0539 11° North 440 506 34,000 300 Climbing Atlanta Center
Tue 08:52:53 AM 35.3678 -84.0261 11° North 430 495 34,000 600 Level Atlanta Center
Tue 08:53:53 AM 35.4825 -83.9981 10° North 425 489 35,200 1,000 Climbing Atlanta Center
Tue 08:54:53 AM 35.5972 -83.9725 12° North 425 489 36,000 400 Climbing Atlanta Center
Tue 08:55:53 AM 35.7119 -83.9417 12° North 425 489 36,000  Level Atlanta Center
Tue 08:56:53 AM 35.8247 -83.9133 11° North 420 483 36,000  Level Atlanta Center
Tue 08:57:53 AM 35.9372 -83.8875 North 410 472 36,000  Level Atlanta Center
Tue 08:58:53 AM 36.0497 -83.8692 North 410 472 36,000  Level Atlanta Center
Tue 08:59:35 AM 36.0964 -83.8603 North 411 473 36,000  Level Indianapolis Center
Tue 09:00:35 AM 36.2319 -83.8350 North 411 473 36,000  Level Indianapolis Center
Tue 09:01:35 AM 36.3447 -83.8147 North 411 473 36,000  Level Indianapolis Center
Tue 09:02:35 AM 36.4572 -83.7944 North 406 467 36,000  Level Indianapolis Center
Tue 09:03:35 AM 36.5700 -83.7794 North 414 476 36,000  Level Indianapolis Center
Tue 09:04:35 AM 36.6828 -83.7617 North 408 470 36,000 -200 Level Indianapolis Center
Tue 09:05:35 AM 36.7933 -83.7436 North 408 470 35,600 -950 Descending Indianapolis Center
Tue 09:06:35 AM 36.8933 -83.7258 North 408 470 34,100 -1,100 Descending Indianapolis Center
Tue 09:07:35 AM 37.0186 -83.7028 North 408 470 33,400 -1,800 Descending Indianapolis Center
Tue 09:08:35 AM 37.1314 -83.6847 360° North 408 470 30,500 -2,950 Descending Indianapolis Center
Tue 09:09:35 AM 37.2522 -83.6847 331° Northwest 408 470 27,500 -3,100 Descending Indianapolis Center
Tue 09:10:35 AM 37.3522 -83.7556 327° Northwest 387 445 24,300 -1,750 Descending Indianapolis Center
Tue 09:11:35 AM 37.4461 -83.8317 328° Northwest 397 457 24,000 -150 Descending Indianapolis Center
Tue 09:12:35 AM 37.5333 -83.9000 329° Northwest 392 451 24,000 -250 Level Indianapolis Center
Tue 09:13:35 AM 37.6250 -83.9686 329° Northwest 392 451 23,500 -800 Descending Indianapolis Center
Tue 09:14:35 AM 37.7144 -84.0375 329° Northwest 387 445 22,400 -1,100 Descending Indianapolis Center
Tue 09:15:35 AM 37.8017 -84.1036 319° Northwest 382 440 21,300 -5,700 Descending Indianapolis Center
Tue 09:16:35 AM 37.8764 -84.1858 314° West 365 420 11,000 -1,750 Descending Indianapolis Center
Tue 09:17:35 AM 37.9447 -84.2758 315° West 353 406 17,800 2,500 Climbing Indianapolis Center
Tue 09:18:35 AM 38.0108 -84.3611 319° Northwest 345 397 16,000 -1,900 Descending Indianapolis Center
Tue 09:19:35 AM 38.0833 -84.4408 358° North 333 383 14,000 -1,800 Descending Indianapolis Center
Tue 09:20:35 AM 38.1772 -84.4447 13° North 315 362 12,400 -1,590 Descending Indianapolis Center
Tue 09:20:58 AM 38.2167 -84.4333 15° North 359 413 11,800 -1,119 Descending Cincinnati TRACON
Tue 09:21:34 AM 38.2667 -84.4167 336° Northwest 348 400 11,300 -811 Descending Cincinnati TRACON
Tue 09:21:35 AM 38.2714 -84.4194 17° North 325 374 11,300 -400 Level Indianapolis Center
Tue 09:22:34 AM 38.3667 -84.3833 248° West 344 396 10,900 -300 Descending Cincinnati TRACON
Tue 09:22:35 AM 38.3633 -84.3939 12° North 347 399 11,000 100 Climbing Indianapolis Center
Tue 09:23:34 AM 38.4667 -84.3667 192° South 346 398 11,000 100 Level Cincinnati TRACON
Tue 09:23:35 AM 38.4594 -84.3686 17° North 347 399 11,100  Climbing Indianapolis Center
Tue 09:24:28 AM 38.5500 -84.3333 North 344 396 11,000 -56 Descending Cincinnati TRACON
Tue 09:25:22 AM 38.6333 -84.3167 322° Northwest 341 392 11,000  Level Cincinnati TRACON
Tue 09:26:34 AM 38.7167 -84.4000 303° West 313 360 11,000  Level Cincinnati TRACON
Tue 09:27:28 AM 38.7500 -84.4667 343° North 315 362 11,000 -368 Level Cincinnati TRACON
Tue 09:28:28 AM 38.8333 -84.5000 351° North 285 328 10,300 -800 Descending Cincinnati TRACON
Tue 09:29:28 AM 38.9167 -84.5167 309° West 272 313 9,400 -896 Descending Cincinnati TRACON
Tue 09:29:35 AM 38.9192 -84.5206 351° North 266 306 9,300 -700 Descending Indianapolis Center
Tue 09:30:28 AM 38.9833 -84.5333 360° North 285 328 8,700 -1,065 Descending Cincinnati TRACON
Tue 09:31:22 AM 39.0667 -84.5333 351° North 296 341 7,400 -1,421 Descending Cincinnati TRACON
Tue 09:32:22 AM 39.1500 -84.5500 293° West 287 330 6,000 -1,429 Descending Cincinnati TRACON
Tue 09:33:28 AM 39.1667 -84.6000 218° Southwest 194 223 4,400 -1,409 Descending Cincinnati TRACON
Tue 09:34:34 AM 39.1333 -84.6333 195° South 169 194 2,900 -1,350 Descending Cincinnati TRACON
Tue 09:35:28 AM 39.0833 -84.6500 195° South 170 196 1,700 -1,333 Descending Cincinnati TRACON

Login

Don't have an account? Register now (free) for customized features, flight alerts, and more!